Terminal Aerodrome Forecast
Issued by NWS

Home | Current Version | Previous Version | Text Only | Print | Product List | Glossary On
Versions: 1 2 3 4 5 6 7 8 9 10 11 12 13 14 15 16 17 18 19 20 21 22
000
FTUS43 KLSX 272334
TAFUIN
TAF
KUIN 272334Z 2800/2824 11010KT P6SM VCSH BKN120
     FM280600 VRB04KT P6SM SCT030 BKN250
     FM281000 VRB04KT 4SM BR BKN010
     FM281400 30009KT P6SM SCT030 BKN250=

USA.gov is the U.S. government's official web portal to all federal, state and local government web resources and services.